Time,TemperatureF,DewpointF,PressureIn,WindDirection,WindDirectionDegrees,WindSpeedMPH,WindSpeedGustMPH,Humidity,HourlyPrecipIn,Conditions,Clouds,dailyrainin,SoftwareType,DateUTC
2013-06-16 00:01:00,58.4,58.1,29.78,SSW,202,0.0,0.0,99,0.00,,---,0.26,VWS V14.00,2013-06-16 05:01:00,
2013-06-16 00:06:00,58.4,58.1,29.78,SSW,202,0.0,0.0,99,0.00,,---,0.00,VWS V14.00,2013-06-16 05:06:00,
2013-06-16 00:11:00,58.3,58.0,29.78,SSW,202,0.0,0.0,99,0.00,,---,0.00,VWS V14.00,2013-06-16 05:11:00,
2013-06-16 00:16:00,58.2,57.9,29.79,SSW,202,0.0,0.0,99,0.00,,---,0.00,VWS V14.00,2013-06-16 05:16:00,
2013-06-16 00:21:00,58.3,58.0,29.79,SSW,203,1.0,2.0,99,0.00,,---,0.00,VWS V14.00,2013-06-16 05:21:00,
2013-06-16 00:26:00,58.4,58.1,29.78,WSW,257,0.0,2.0,99,0.00,,---,0.00,VWS V14.00,2013-06-16 05:26:00,
2013-06-16 00:31:00,58.5,58.2,29.79,WSW,257,0.0,2.0,99,0.00,,---,0.00,VWS V14.00,2013-06-16 05:31:00,
2013-06-16 00:36:00,58.6,58.3,29.78,WSW,257,0.0,0.0,99,0.00,,---,0.00,VWS V14.00,2013-06-16 05:36:00,
2013-06-16 00:41:00,58.6,58.3,29.79,SW,235,0.0,2.0,99,0.00,,---,0.00,VWS V14.00,2013-06-16 05:41:00,
2013-06-16 00:46:00,58.7,58.4,29.78,South,170,0.0,2.0,99,0.00,,---,0.00,VWS V14.00,2013-06-16 05:46:00,
2013-06-16 00:51:00,58.7,58.4,29.79,South,170,0.0,0.0,99,0.00,,---,0.00,VWS V14.00,2013-06-16 05:51:00,
2013-06-16 00:56:00,58.6,58.3,29.78,South,173,0.0,2.0,99,0.00,,---,0.00,VWS V14.00,2013-06-16 05:56:00,
2013-06-16 01:01:00,58.6,58.3,29.78,SSE,168,0.0,2.0,99,0.00,,---,0.00,VWS V14.00,2013-06-16 06:01:00,
2013-06-16 01:06:00,58.7,58.4,29.78,South,171,0.0,0.0,99,0.00,,---,0.00,VWS V14.00,2013-06-16 06:06:00,
2013-06-16 01:11:00,58.7,58.4,29.78,SE,136,0.0,5.0,99,0.00,,---,0.00,VWS V14.00,2013-06-16 06:11:00,
2013-06-16 01:16:00,58.7,58.4,29.78,SSE,163,0.0,5.0,99,0.00,,---,0.00,VWS V14.00,2013-06-16 06:16:00,
2013-06-16 01:21:00,58.9,58.9,29.78,SSE,150,0.0,3.0,100,0.00,,---,0.00,VWS V14.00,2013-06-16 06:21:00,
2013-06-16 01:26:00,59.0,59.0,29.78,SSE,157,0.0,4.0,100,0.00,,---,0.00,VWS V14.00,2013-06-16 06:26:00,
2013-06-16 01:31:00,59.1,59.1,29.78,SSE,157,0.0,4.0,100,0.00,,---,0.00,VWS V14.00,2013-06-16 06:31:00,
2013-06-16 01:36:00,59.2,59.2,29.77,SSE,157,0.0,0.0,100,0.00,,---,0.00,VWS V14.00,2013-06-16 06:36:00,
2013-06-16 01:41:00,59.3,59.3,29.77,SE,144,0.0,3.0,100,0.00,,---,0.00,VWS V14.00,2013-06-16 06:41:00,
2013-06-16 01:46:00,59.5,59.5,29.77,SSE,166,2.0,3.0,100,0.00,,---,0.00,VWS V14.00,2013-06-16 06:46:00,
2013-06-16 01:51:00,59.7,59.7,29.77,SSW,200,0.0,1.0,100,0.00,,---,0.00,VWS V14.00,2013-06-16 06:51:00,
2013-06-16 01:56:00,59.8,59.8,29.77,South,182,0.0,2.0,100,0.00,,---,0.00,VWS V14.00,2013-06-16 06:56:00,
2013-06-16 02:01:00,59.8,59.8,29.77,South,184,0.0,3.0,100,0.00,,---,0.00,VWS V14.00,2013-06-16 07:01:00,
2013-06-16 02:06:00,59.8,59.8,29.77,SSW,206,0.0,3.0,100,0.00,,---,0.00,VWS V14.00,2013-06-16 07:06:00,
2013-06-16 02:11:00,59.7,59.7,29.76,SSW,206,0.0,3.0,100,0.00,,---,0.00,VWS V14.00,2013-06-16 07:11:00,
2013-06-16 02:16:00,59.7,59.7,29.77,SW,226,1.0,3.0,100,0.00,,---,0.00,VWS V14.00,2013-06-16 07:16:00,
2013-06-16 02:21:00,59.6,59.6,29.76,ESE,123,0.0,2.0,100,0.00,,---,0.00,VWS V14.00,2013-06-16 07:21:00,
2013-06-16 02:26:00,59.5,59.5,29.76,WSW,238,0.0,3.0,100,0.00,,---,0.00,VWS V14.00,2013-06-16 07:26:00,
2013-06-16 02:31:00,59.3,59.3,29.77,SE,124,0.0,3.0,100,0.00,,---,0.00,VWS V14.00,2013-06-16 07:31:00,
2013-06-16 02:36:00,59.1,58.8,29.77,SSW,207,0.0,2.0,99,0.00,,---,0.00,VWS V14.00,2013-06-16 07:36:00,
2013-06-16 02:41:00,59.0,58.7,29.77,SW,218,0.0,3.0,99,0.00,,---,0.00,VWS V14.00,2013-06-16 07:41:00,
2013-06-16 02:46:00,58.9,58.6,29.77,SW,218,0.0,3.0,99,0.00,,---,0.00,VWS V14.00,2013-06-16 07:46:00,
2013-06-16 02:51:00,58.7,58.4,29.77,SW,218,0.0,0.0,99,0.00,,---,0.00,VWS V14.00,2013-06-16 07:51:00,
2013-06-16 02:56:00,58.6,58.3,29.77,SW,218,0.0,0.0,99,0.00,,---,0.00,VWS V14.00,2013-06-16 07:56:00,
2013-06-16 03:01:00,58.5,58.2,29.77,South,181,0.0,2.0,99,0.00,,---,0.00,VWS V14.00,2013-06-16 08:01:00,
2013-06-16 03:06:00,58.5,58.2,29.77,SSE,153,0.0,2.0,99,0.00,,---,0.00,VWS V14.00,2013-06-16 08:06:00,
2013-06-16 03:11:00,58.4,58.4,29.77,SSE,153,0.0,2.0,100,0.00,,---,0.00,VWS V14.00,2013-06-16 08:11:00,
2013-06-16 03:16:00,58.3,58.3,29.77,SSE,153,0.0,2.0,100,0.00,,---,0.00,VWS V14.00,2013-06-16 08:16:00,
2013-06-16 03:21:00,58.1,57.8,29.77,WSW,239,0.0,3.0,99,0.00,,---,0.00,VWS V14.00,2013-06-16 08:21:00,
2013-06-16 03:26:00,58.0,57.7,29.77,WSW,239,0.0,3.0,99,0.00,,---,0.00,VWS V14.00,2013-06-16 08:26:00,
2013-06-16 03:31:00,57.8,57.5,29.77,WSW,239,0.0,3.0,99,0.00,,---,0.00,VWS V14.00,2013-06-16 08:31:00,
2013-06-16 03:36:00,57.7,57.4,29.77,WSW,239,0.0,0.0,99,0.00,,---,0.00,VWS V14.00,2013-06-16 08:36:00,
2013-06-16 03:41:00,57.6,57.3,29.76,WSW,239,0.0,0.0,99,0.00,,---,0.00,VWS V14.00,2013-06-16 08:41:00,
2013-06-16 03:46:00,57.5,57.2,29.76,WSW,239,0.0,0.0,99,0.00,,---,0.00,VWS V14.00,2013-06-16 08:46:00,
2013-06-16 03:51:00,57.3,57.0,29.76,WSW,239,0.0,0.0,99,0.00,,---,0.00,VWS V14.00,2013-06-16 08:51:00,
2013-06-16 03:56:00,57.3,57.0,29.76,WSW,239,0.0,0.0,99,0.00,,---,0.00,VWS V14.00,2013-06-16 08:56:00,
2013-06-16 04:01:00,57.1,56.8,29.76,WSW,239,0.0,0.0,99,0.00,,---,0.00,VWS V14.00,2013-06-16 09:01:00,
2013-06-16 04:06:00,57.0,56.7,29.76,WSW,239,0.0,0.0,99,0.00,,---,0.00,VWS V14.00,2013-06-16 09:06:00,
2013-06-16 04:11:00,56.9,56.6,29.76,WSW,239,0.0,0.0,99,0.00,,---,0.00,VWS V14.00,2013-06-16 09:11:00,
2013-06-16 04:16:00,56.8,56.5,29.76,WSW,239,0.0,0.0,99,0.00,,---,0.00,VWS V14.00,2013-06-16 09:16:00,
2013-06-16 04:21:00,56.7,56.4,29.76,WSW,239,0.0,0.0,99,0.00,,---,0.00,VWS V14.00,2013-06-16 09:21:00,
2013-06-16 04:26:00,56.7,56.4,29.76,WSW,239,0.0,0.0,99,0.00,,---,0.00,VWS V14.00,2013-06-16 09:26:00,
2013-06-16 04:31:00,56.6,56.3,29.76,WSW,239,0.0,0.0,99,0.00,,---,0.00,VWS V14.00,2013-06-16 09:31:00,
2013-06-16 04:36:00,56.6,56.3,29.76,WSW,238,0.0,1.0,99,0.00,,---,0.00,VWS V14.00,2013-06-16 09:36:00,
2013-06-16 04:41:00,56.6,56.3,29.76,SW,233,0.0,1.0,99,0.00,,---,0.00,VWS V14.00,2013-06-16 09:41:00,
2013-06-16 04:46:00,56.6,56.3,29.76,SW,233,0.0,1.0,99,0.00,,---,0.00,VWS V14.00,2013-06-16 09:46:00,
2013-06-16 04:51:00,56.6,56.3,29.77,SSW,201,0.0,0.0,99,0.00,,---,0.00,VWS V14.00,2013-06-16 09:51:00,
2013-06-16 04:56:00,56.6,56.3,29.76,SW,229,0.0,3.0,99,0.00,,---,0.00,VWS V14.00,2013-06-16 09:56:00,
2013-06-16 05:01:00,56.6,56.6,29.77,SW,229,0.0,3.0,100,0.00,,---,0.00,VWS V14.00,2013-06-16 10:01:00,
2013-06-16 05:06:00,56.4,56.1,29.77,SW,229,0.0,0.0,99,0.00,,---,0.00,VWS V14.00,2013-06-16 10:06:00,
2013-06-16 05:11:00,56.3,56.0,29.76,SW,225,0.0,0.0,99,0.00,,---,0.00,VWS V14.00,2013-06-16 10:11:00,
2013-06-16 05:16:00,56.2,55.9,29.77,SW,225,0.0,0.0,99,0.00,,---,0.00,VWS V14.00,2013-06-16 10:16:00,
2013-06-16 05:21:00,56.1,55.8,29.76,SW,221,0.0,0.0,99,0.00,,---,0.00,VWS V14.00,2013-06-16 10:21:00,
2013-06-16 05:26:00,55.9,55.6,29.77,SSE,162,1.0,1.0,99,0.00,,---,0.00,VWS V14.00,2013-06-16 10:26:00,
2013-06-16 05:31:00,55.8,55.5,29.77,South,169,0.0,2.0,99,0.00,,---,0.00,VWS V14.00,2013-06-16 10:31:00,
2013-06-16 05:36:00,55.7,55.4,29.77,South,169,0.0,0.0,99,0.00,,---,0.00,VWS V14.00,2013-06-16 10:36:00,
2013-06-16 05:41:00,55.7,55.4,29.77,South,169,0.0,0.0,99,0.00,,---,0.00,VWS V14.00,2013-06-16 10:41:00,
2013-06-16 05:46:00,55.6,55.3,29.77,South,169,0.0,0.0,99,0.00,,---,0.00,VWS V14.00,2013-06-16 10:46:00,
2013-06-16 05:51:00,55.6,55.3,29.77,South,169,0.0,0.0,99,0.00,,---,0.00,VWS V14.00,2013-06-16 10:51:00,
2013-06-16 05:56:00,55.5,55.2,29.78,South,169,0.0,0.0,99,0.00,,---,0.00,VWS V14.00,2013-06-16 10:56:00,
2013-06-16 06:01:00,55.4,55.1,29.78,South,169,0.0,0.0,99,0.00,,---,0.00,VWS V14.00,2013-06-16 11:01:00,
2013-06-16 06:06:00,55.3,55.0,29.78,South,169,0.0,0.0,99,0.00,,---,0.00,VWS V14.00,2013-06-16 11:06:00,
2013-06-16 06:11:00,55.3,55.0,29.78,South,169,0.0,0.0,99,0.00,,---,0.00,VWS V14.00,2013-06-16 11:11:00,
2013-06-16 06:16:00,55.3,55.0,29.78,South,184,0.0,2.0,99,0.00,,---,0.00,VWS V14.00,2013-06-16 11:16:00,
2013-06-16 06:21:00,55.4,55.1,29.78,South,184,0.0,1.0,99,0.00,,---,0.00,VWS V14.00,2013-06-16 11:21:00,
2013-06-16 06:26:00,55.5,55.2,29.79,South,169,0.0,2.0,99,0.00,,---,0.01,VWS V14.00,2013-06-16 11:26:00,
2013-06-16 06:31:00,55.6,55.3,29.79,South,183,0.0,3.0,99,0.00,,---,0.01,VWS V14.00,2013-06-16 11:31:00,
2013-06-16 06:37:00,55.8,55.5,29.79,South,183,0.0,0.0,99,0.00,,---,0.01,VWS V14.00,2013-06-16 11:37:00,
2013-06-16 06:42:00,56.0,55.7,29.79,South,187,0.0,2.0,99,0.00,,---,0.01,VWS V14.00,2013-06-16 11:42:00,
2013-06-16 06:47:00,56.2,55.9,29.80,South,187,0.0,2.0,99,0.00,,---,0.01,VWS V14.00,2013-06-16 11:47:00,
2013-06-16 06:52:00,56.4,56.1,29.80,South,187,0.0,0.0,99,0.00,,---,0.01,VWS V14.00,2013-06-16 11:52:00,
2013-06-16 06:57:00,56.6,56.3,29.80,South,186,0.0,1.0,99,0.00,,---,0.01,VWS V14.00,2013-06-16 11:57:00,
2013-06-16 07:02:00,56.8,56.5,29.79,South,186,0.0,1.0,99,0.00,,---,0.01,VWS V14.00,2013-06-16 12:02:00,
2013-06-16 07:07:00,57.1,56.8,29.79,SSE,155,0.0,3.0,99,0.00,,---,0.01,VWS V14.00,2013-06-16 12:07:00,
2013-06-16 07:12:00,57.3,57.0,29.78,SSE,155,0.0,3.0,99,0.00,,---,0.01,VWS V14.00,2013-06-16 12:12:00,
2013-06-16 07:17:00,57.5,56.9,29.78,South,173,0.0,3.0,98,0.00,,---,0.01,VWS V14.00,2013-06-16 12:17:00,
2013-06-16 07:22:00,57.7,57.1,29.78,SW,223,1.0,3.0,98,0.00,,---,0.01,VWS V14.00,2013-06-16 12:22:00,
2013-06-16 07:27:00,57.9,57.1,29.78,SW,223,0.0,3.0,97,0.00,,---,0.01,VWS V14.00,2013-06-16 12:27:00,
2013-06-16 07:32:00,58.0,57.2,29.78,SW,232,1.0,5.0,97,0.00,,---,0.01,VWS V14.00,2013-06-16 12:32:00,
2013-06-16 07:37:00,58.2,57.1,29.78,West,266,0.0,5.0,96,0.00,,---,0.01,VWS V14.00,2013-06-16 12:37:00,
2013-06-16 07:42:00,58.5,57.4,29.78,WSW,238,0.0,5.0,96,0.00,,---,0.01,VWS V14.00,2013-06-16 12:42:00,
2013-06-16 07:47:00,58.7,57.3,29.79,SW,232,0.0,5.0,95,0.00,,---,0.01,VWS V14.00,2013-06-16 12:47:00,
2013-06-16 07:52:00,59.1,57.7,29.79,WSW,240,0.0,5.0,95,0.00,,---,0.01,VWS V14.00,2013-06-16 12:52:00,
2013-06-16 07:57:00,59.5,57.8,29.79,WNW,284,2.0,5.0,94,0.00,,---,0.01,VWS V14.00,2013-06-16 12:57:00,
2013-06-16 08:02:00,59.9,58.2,29.79,WSW,241,4.0,5.0,94,0.00,,---,0.01,VWS V14.00,2013-06-16 13:02:00,
2013-06-16 08:07:00,60.3,58.3,29.80,WSW,241,3.0,5.0,93,0.00,,---,0.01,VWS V14.00,2013-06-16 13:07:00,
2013-06-16 08:12:00,60.7,58.4,29.80,SW,231,1.0,5.0,92,0.00,,---,0.01,VWS V14.00,2013-06-16 13:12:00,
2013-06-16 08:17:00,61.2,58.6,29.80,SW,234,5.0,5.0,91,0.00,,---,0.01,VWS V14.00,2013-06-16 13:17:00,
2013-06-16 08:22:00,61.7,58.7,29.80,WSW,244,0.0,6.0,90,0.00,,---,0.01,VWS V14.00,2013-06-16 13:22:00,
2013-06-16 08:27:00,62.0,58.4,29.80,WSW,237,3.0,6.0,88,0.00,,---,0.01,VWS V14.00,2013-06-16 13:27:00,
2013-06-16 08:32:00,62.4,58.5,29.80,WSW,252,0.0,6.0,87,0.00,,---,0.01,VWS V14.00,2013-06-16 13:32:00,
2013-06-16 08:37:00,62.8,58.9,29.80,SW,231,1.0,3.0,87,0.00,,---,0.01,VWS V14.00,2013-06-16 13:37:00,
2013-06-16 08:42:00,63.1,57.9,29.80,SW,219,0.0,10.0,83,0.00,,---,0.01,VWS V14.00,2013-06-16 13:42:00,
2013-06-16 08:47:00,63.5,58.6,29.79,WSW,240,0.0,10.0,84,0.00,,---,0.01,VWS V14.00,2013-06-16 13:47:00,
2013-06-16 08:52:00,63.9,58.6,29.80,SW,228,4.0,8.0,83,0.00,,---,0.01,VWS V14.00,2013-06-16 13:52:00,
2013-06-16 08:57:00,64.3,58.7,29.80,SW,226,0.0,10.0,82,0.00,,---,0.01,VWS V14.00,2013-06-16 13:57:00,
2013-06-16 09:02:00,64.7,58.7,29.79,SW,225,4.0,10.0,81,0.00,,---,0.01,VWS V14.00,2013-06-16 14:02:00,
2013-06-16 09:07:00,65.0,59.0,29.80,WSW,257,0.0,5.0,81,0.00,,---,0.01,VWS V14.00,2013-06-16 14:07:00,
2013-06-16 09:12:00,65.4,58.0,29.79,SW,215,2.0,6.0,77,0.00,,---,0.01,VWS V14.00,2013-06-16 14:12:00,
2013-06-16 09:17:00,65.8,58.0,29.79,SW,232,3.0,9.0,76,0.00,,---,0.01,VWS V14.00,2013-06-16 14:17:00,
2013-06-16 09:22:00,66.1,58.7,29.80,West,281,0.0,5.0,77,0.00,,---,0.01,VWS V14.00,2013-06-16 14:22:00,
2013-06-16 09:27:00,66.5,58.7,29.79,WSW,240,2.0,5.0,76,0.00,,---,0.01,VWS V14.00,2013-06-16 14:27:00,
2013-06-16 09:32:00,66.8,58.3,29.79,West,275,1.0,5.0,74,0.00,,---,0.01,VWS V14.00,2013-06-16 14:32:00,
2013-06-16 09:37:00,67.2,58.6,29.79,SW,217,5.0,10.0,74,0.00,,---,0.01,VWS V14.00,2013-06-16 14:37:00,
2013-06-16 09:42:00,67.5,58.5,29.79,WNW,287,0.0,10.0,73,0.00,,---,0.01,VWS V14.00,2013-06-16 14:42:00,
2013-06-16 09:47:00,67.9,58.9,29.79,South,186,3.0,10.0,73,0.00,,---,0.01,VWS V14.00,2013-06-16 14:47:00,
2013-06-16 09:52:00,68.5,57.9,29.79,NW,311,0.0,11.0,69,0.00,,---,0.01,VWS V14.00,2013-06-16 14:52:00,
2013-06-16 09:57:00,69.0,59.6,29.79,West,267,3.0,11.0,72,0.00,,---,0.01,VWS V14.00,2013-06-16 14:57:00,
2013-06-16 10:02:00,69.5,58.5,29.79,South,190,4.0,11.0,68,0.00,,---,0.01,VWS V14.00,2013-06-16 15:02:00,
2013-06-16 10:07:00,69.9,58.9,29.78,WSW,254,2.0,5.0,68,0.00,,---,0.01,VWS V14.00,2013-06-16 15:07:00,
2013-06-16 10:12:00,70.2,58.3,29.78,WNW,284,2.0,7.0,66,0.00,,---,0.01,VWS V14.00,2013-06-16 15:12:00,
2013-06-16 10:17:00,70.4,59.3,29.78,WSW,244,3.0,9.0,68,0.00,,---,0.01,VWS V14.00,2013-06-16 15:17:00,
2013-06-16 10:22:00,70.8,57.6,29.78,SSW,197,2.0,7.0,63,0.00,,---,0.01,VWS V14.00,2013-06-16 15:22:00,
2013-06-16 10:27:00,71.2,58.0,29.77,East,81,0.0,7.0,63,0.00,,---,0.01,VWS V14.00,2013-06-16 15:27:00,
2013-06-16 10:32:00,71.6,57.5,29.78,SSW,198,3.0,7.0,61,0.00,,---,0.01,VWS V14.00,2013-06-16 15:32:00,
2013-06-16 10:37:00,71.8,57.6,29.78,South,178,3.0,5.0,61,0.00,,---,0.01,VWS V14.00,2013-06-16 15:37:00,
2013-06-16 10:42:00,72.1,57.5,29.78,SSE,165,1.0,10.0,60,0.00,,---,0.01,VWS V14.00,2013-06-16 15:42:00,
2013-06-16 10:47:00,72.3,56.7,29.77,SW,221,5.0,14.0,58,0.00,,---,0.01,VWS V14.00,2013-06-16 15:47:00,
2013-06-16 10:52:00,72.4,56.3,29.78,SW,214,7.0,11.0,57,0.00,,---,0.01,VWS V14.00,2013-06-16 15:52:00,
2013-06-16 10:57:00,72.4,54.3,29.78,West,273,11.0,14.0,53,0.00,,---,0.01,VWS V14.00,2013-06-16 15:57:00,
2013-06-16 11:02:00,72.5,55.4,29.78,South,191,3.0,15.0,55,0.00,,---,0.01,VWS V14.00,2013-06-16 16:02:00,
2013-06-16 11:07:00,72.8,56.2,29.78,West,261,2.0,10.0,56,0.00,,---,0.01,VWS V14.00,2013-06-16 16:07:00,
2013-06-16 11:12:00,73.1,56.0,29.78,NNW,329,2.0,16.0,55,0.00,,---,0.01,VWS V14.00,2013-06-16 16:12:00,
2013-06-16 11:17:00,73.2,54.0,29.78,SW,234,10.0,16.0,51,0.00,,---,0.01,VWS V14.00,2013-06-16 16:17:00,
2013-06-16 11:22:00,73.3,55.2,29.78,SW,222,7.0,11.0,53,0.00,,---,0.01,VWS V14.00,2013-06-16 16:22:00,
2013-06-16 11:27:00,73.2,54.5,29.78,SW,233,4.0,12.0,52,0.00,,---,0.01,VWS V14.00,2013-06-16 16:27:00,
2013-06-16 11:32:00,73.5,53.7,29.78,WSW,245,4.0,18.0,50,0.00,,---,0.01,VWS V14.00,2013-06-16 16:32:00,
2013-06-16 11:37:00,73.7,53.4,29.78,SW,223,6.0,13.0,49,0.00,,---,0.01,VWS V14.00,2013-06-16 16:37:00,
2013-06-16 11:42:00,74.0,55.8,29.78,WNW,303,2.0,13.0,53,0.00,,---,0.01,VWS V14.00,2013-06-16 16:42:00,
2013-06-16 11:47:00,74.4,53.5,29.78,SW,224,6.0,13.0,48,0.00,,---,0.01,VWS V14.00,2013-06-16 16:47:00,
2013-06-16 11:52:00,74.5,54.1,29.78,SSW,212,11.0,11.0,49,0.00,,---,0.01,VWS V14.00,2013-06-16 16:52:00,
2013-06-16 11:57:00,74.8,54.4,29.78,West,275,5.0,12.0,49,0.00,,---,0.01,VWS V14.00,2013-06-16 16:57:00,
2013-06-16 12:02:00,75.0,53.4,29.78,WSW,255,4.0,12.0,47,0.00,,---,0.01,VWS V14.00,2013-06-16 17:02:00,
2013-06-16 12:07:00,74.9,53.3,29.78,WNW,295,1.0,10.0,47,0.00,,---,0.01,VWS V14.00,2013-06-16 17:07:00,
2013-06-16 12:12:00,75.2,53.6,29.78,North,355,2.0,13.0,47,0.00,,---,0.01,VWS V14.00,2013-06-16 17:12:00,
2013-06-16 12:17:00,75.3,53.7,29.78,SW,219,1.0,14.0,47,0.00,,---,0.01,VWS V14.00,2013-06-16 17:17:00,
2013-06-16 12:22:00,74.8,52.7,29.78,West,273,3.0,12.0,46,0.00,,---,0.01,VWS V14.00,2013-06-16 17:22:00,
2013-06-16 12:27:00,74.7,53.2,29.78,SW,223,12.0,14.0,47,0.00,,---,0.01,VWS V14.00,2013-06-16 17:27:00,
2013-06-16 12:32:00,74.8,54.4,29.78,SSW,204,1.0,14.0,49,0.00,,---,0.01,VWS V14.00,2013-06-16 17:32:00,
2013-06-16 12:37:00,74.7,53.2,29.78,SW,223,2.0,12.0,47,0.00,,---,0.01,VWS V14.00,2013-06-16 17:37:00,
2013-06-16 12:42:00,74.4,52.9,29.78,SW,215,6.0,12.0,47,0.00,,---,0.01,VWS V14.00,2013-06-16 17:42:00,
2013-06-16 12:47:00,74.6,53.1,29.78,West,267,4.0,14.0,47,0.00,,---,0.01,VWS V14.00,2013-06-16 17:47:00,
2013-06-16 12:52:00,75.2,55.8,29.77,NNW,329,0.0,6.0,51,0.00,,---,0.01,VWS V14.00,2013-06-16 17:52:00,
2013-06-16 12:57:00,75.8,54.2,29.78,NNE,13,9.0,13.0,47,0.00,,---,0.01,VWS V14.00,2013-06-16 17:57:00,
2013-06-16 13:02:00,75.9,53.7,29.77,West,281,3.0,17.0,46,0.00,,---,0.01,VWS V14.00,2013-06-16 18:02:00,
2013-06-16 13:07:00,76.4,54.1,29.77,SW,222,6.0,14.0,46,0.00,,---,0.01,VWS V14.00,2013-06-16 18:07:00,
2013-06-16 13:12:00,76.4,54.1,29.78,WNW,293,5.0,14.0,46,0.00,,---,0.01,VWS V14.00,2013-06-16 18:12:00,
2013-06-16 13:17:00,76.0,53.8,29.77,West,271,3.0,14.0,46,0.00,,---,0.01,VWS V14.00,2013-06-16 18:17:00,
2013-06-16 13:22:00,75.7,52.3,29.77,WSW,244,6.0,17.0,44,0.00,,---,0.01,VWS V14.00,2013-06-16 18:22:00,
2013-06-16 13:27:00,76.1,50.7,29.76,SW,220,7.0,17.0,41,0.00,,---,0.01,VWS V14.00,2013-06-16 18:27:00,
2013-06-16 13:32:00,75.6,52.2,29.77,NNW,336,0.0,17.0,44,0.00,,---,0.01,VWS V14.00,2013-06-16 18:32:00,
2013-06-16 13:37:00,75.5,52.7,29.77,WNW,302,3.0,6.0,45,0.00,,---,0.01,VWS V14.00,2013-06-16 18:37:00,
2013-06-16 13:42:00,75.9,53.1,29.77,SSE,156,1.0,9.0,45,0.00,,---,0.01,VWS V14.00,2013-06-16 18:42:00,
2013-06-16 13:47:00,76.6,53.1,29.77,SW,232,0.0,9.0,44,0.00,,---,0.01,VWS V14.00,2013-06-16 18:47:00,
2013-06-16 13:52:00,76.7,52.5,29.77,SW,228,6.0,12.0,43,0.00,,---,0.01,VWS V14.00,2013-06-16 18:52:00,
2013-06-16 13:57:00,77.1,53.5,29.77,SW,234,5.0,12.0,44,0.00,,---,0.01,VWS V14.00,2013-06-16 18:57:00,
2013-06-16 14:02:00,77.3,51.8,29.77,WSW,238,1.0,12.0,41,0.00,,---,0.01,VWS V14.00,2013-06-16 19:02:00,
2013-06-16 14:07:00,77.0,51.5,29.77,SW,227,5.0,11.0,41,0.00,,---,0.01,VWS V14.00,2013-06-16 19:07:00,
2013-06-16 14:12:00,76.7,50.6,29.77,West,272,1.0,12.0,40,0.00,,---,0.01,VWS V14.00,2013-06-16 19:12:00,
2013-06-16 14:17:00,76.4,52.3,29.77,SSW,202,1.0,14.0,43,0.00,,---,0.01,VWS V14.00,2013-06-16 19:17:00,
2013-06-16 14:22:00,76.7,51.2,29.76,SW,225,4.0,9.0,41,0.00,,---,0.01,VWS V14.00,2013-06-16 19:22:00,
2013-06-16 14:27:00,77.2,53.0,29.77,SSE,160,1.0,11.0,43,0.00,,---,0.01,VWS V14.00,2013-06-16 19:27:00,
2013-06-16 14:32:00,77.7,53.5,29.77,West,263,4.0,11.0,43,0.00,,---,0.01,VWS V14.00,2013-06-16 19:32:00,
2013-06-16 14:37:00,77.4,51.9,29.77,NW,315,1.0,15.0,41,0.00,,---,0.01,VWS V14.00,2013-06-16 19:37:00,
2013-06-16 14:42:00,77.5,53.3,29.77,SW,215,4.0,15.0,43,0.00,,---,0.01,VWS V14.00,2013-06-16 19:42:00,
2013-06-16 14:47:00,77.6,50.7,29.78,West,265,7.0,17.0,39,0.00,,---,0.01,VWS V14.00,2013-06-16 19:47:00,
2013-06-16 14:52:00,75.7,51.0,29.79,WSW,258,2.0,23.0,42,0.00,,---,0.01,VWS V14.00,2013-06-16 19:52:00,
2013-06-16 14:57:00,73.6,51.6,29.80,West,281,1.0,23.0,46,0.00,,---,0.01,VWS V14.00,2013-06-16 19:57:00,
2013-06-16 15:02:00,72.2,51.4,29.80,WNW,288,1.0,23.0,48,0.00,,---,0.01,VWS V14.00,2013-06-16 20:02:00,
2013-06-16 15:07:00,71.9,50.6,29.80,SSW,198,13.0,14.0,47,0.00,,---,0.01,VWS V14.00,2013-06-16 20:07:00,
2013-06-16 15:12:00,71.2,51.6,29.80,WNW,300,2.0,14.0,50,0.00,,---,0.01,VWS V14.00,2013-06-16 20:12:00,
2013-06-16 15:17:00,70.5,51.5,29.80,SSW,213,6.0,14.0,51,0.00,,---,0.01,VWS V14.00,2013-06-16 20:17:00,
2013-06-16 15:22:00,69.7,51.3,29.81,SSW,213,5.0,9.0,52,0.00,,---,0.01,VWS V14.00,2013-06-16 20:22:00,
2013-06-16 15:27:00,69.0,50.1,29.81,WSW,258,8.0,10.0,51,0.00,,---,0.01,VWS V14.00,2013-06-16 20:27:00,
2013-06-16 15:32:00,68.6,50.3,29.81,WSW,250,2.0,10.0,52,0.00,,---,0.01,VWS V14.00,2013-06-16 20:32:00,
2013-06-16 15:37:00,68.4,50.6,29.81,SSW,203,3.0,10.0,53,0.00,,---,0.01,VWS V14.00,2013-06-16 20:37:00,
2013-06-16 15:42:00,68.3,50.5,29.81,WNW,283,4.0,12.0,53,0.00,,---,0.01,VWS V14.00,2013-06-16 20:42:00,
2013-06-16 15:47:00,68.4,51.1,29.80,WSW,248,0.0,12.0,54,0.00,,---,0.01,VWS V14.00,2013-06-16 20:47:00,
2013-06-16 15:52:00,69.2,51.4,29.78,SW,234,2.0,10.0,53,0.00,,---,0.01,VWS V14.00,2013-06-16 20:52:00,
2013-06-16 15:57:00,70.0,52.6,29.78,WSW,252,2.0,10.0,54,0.00,,---,0.01,VWS V14.00,2013-06-16 20:57:00,
2013-06-16 16:02:00,70.8,52.3,29.78,SSW,195,0.0,10.0,52,0.00,,---,0.01,VWS V14.00,2013-06-16 21:02:00,
2013-06-16 16:07:00,71.8,52.2,29.78,SSW,209,4.0,6.0,50,0.00,,---,0.01,VWS V14.00,2013-06-16 21:07:00,
2013-06-16 16:12:00,72.8,52.5,29.78,SSW,210,5.0,8.0,49,0.00,,---,0.01,VWS V14.00,2013-06-16 21:12:00,
2013-06-16 16:17:00,73.7,53.9,29.78,WNW,291,2.0,8.0,50,0.00,,---,0.01,VWS V14.00,2013-06-16 21:17:00,
2013-06-16 16:22:00,74.4,50.5,29.78,West,279,2.0,14.0,43,0.00,,---,0.01,VWS V14.00,2013-06-16 21:22:00,
2013-06-16 16:27:00,74.9,51.5,29.78,NW,305,2.0,14.0,44,0.00,,---,0.01,VWS V14.00,2013-06-16 21:27:00,
2013-06-16 16:32:00,75.2,51.8,29.78,West,267,0.0,14.0,44,0.00,,---,0.01,VWS V14.00,2013-06-16 21:32:00,
2013-06-16 16:37:00,75.6,52.2,29.78,WSW,255,1.0,6.0,44,0.00,,---,0.01,VWS V14.00,2013-06-16 21:37:00,
2013-06-16 16:42:00,75.9,51.2,29.78,SW,235,10.0,13.0,42,0.00,,---,0.01,VWS V14.00,2013-06-16 21:42:00,
2013-06-16 16:47:00,76.0,53.2,29.78,SSW,198,6.0,13.0,45,0.00,,---,0.01,VWS V14.00,2013-06-16 21:47:00,
2013-06-16 16:52:00,76.4,52.3,29.78,SW,236,2.0,7.0,43,0.00,,---,0.01,VWS V14.00,2013-06-16 21:52:00,
2013-06-16 16:57:00,76.6,51.2,29.78,WSW,241,12.0,15.0,41,0.00,,---,0.01,VWS V14.00,2013-06-16 21:57:00,
2013-06-16 17:02:00,76.4,52.9,29.77,West,271,0.0,15.0,44,0.00,,---,0.01,VWS V14.00,2013-06-16 22:02:00,
2013-06-16 17:07:00,76.5,52.4,29.77,SSW,209,5.0,8.0,43,0.00,,---,0.01,VWS V14.00,2013-06-16 22:07:00,
2013-06-16 17:12:00,76.3,51.5,29.77,West,265,3.0,12.0,42,0.00,,---,0.01,VWS V14.00,2013-06-16 22:12:00,
2013-06-16 17:17:00,76.2,52.1,29.77,SW,217,6.0,12.0,43,0.00,,---,0.01,VWS V14.00,2013-06-16 22:17:00,
2013-06-16 17:22:00,76.4,52.9,29.77,South,174,2.0,7.0,44,0.00,,---,0.01,VWS V14.00,2013-06-16 22:22:00,
2013-06-16 17:27:00,76.4,52.3,29.76,WSW,256,1.0,10.0,43,0.00,,---,0.01,VWS V14.00,2013-06-16 22:27:00,
2013-06-16 17:32:00,76.4,52.3,29.76,WSW,237,4.0,10.0,43,0.00,,---,0.01,VWS V14.00,2013-06-16 22:32:00,
2013-06-16 17:37:00,76.2,52.7,29.77,NNW,346,3.0,14.0,44,0.00,,---,0.01,VWS V14.00,2013-06-16 22:37:00,
2013-06-16 17:42:00,75.8,52.4,29.77,NNW,338,2.0,14.0,44,0.00,,---,0.01,VWS V14.00,2013-06-16 22:42:00,
2013-06-16 17:47:00,75.1,52.9,29.78,WNW,301,3.0,14.0,46,0.00,,---,0.01,VWS V14.00,2013-06-16 22:47:00,
2013-06-16 17:52:00,73.9,53.6,29.81,WNW,298,2.0,12.0,49,0.00,,---,0.01,VWS V14.00,2013-06-16 22:52:00,
2013-06-16 17:57:00,71.3,53.3,29.82,ENE,69,0.0,12.0,53,0.00,,---,0.01,VWS V14.00,2013-06-16 22:57:00,
2013-06-16 18:02:00,68.5,53.2,29.81,South,191,2.0,12.0,58,0.00,,---,0.01,VWS V14.00,2013-06-16 23:02:00,
2013-06-16 18:07:00,66.3,54.2,29.81,NE,45,4.0,10.0,65,0.00,,---,0.01,VWS V14.00,2013-06-16 23:07:00,
2013-06-16 18:12:00,63.9,53.9,29.80,WNW,284,0.0,11.0,70,0.00,,---,0.01,VWS V14.00,2013-06-16 23:12:00,
2013-06-16 18:17:00,62.3,54.3,29.80,NE,55,2.0,11.0,75,0.00,,---,0.01,VWS V14.00,2013-06-16 23:17:00,
2013-06-16 18:22:00,61.2,54.3,29.81,NNE,24,2.0,5.0,78,0.00,,---,0.01,VWS V14.00,2013-06-16 23:22:00,
2013-06-16 18:27:00,60.3,54.1,29.80,North,355,1.0,5.0,80,0.00,,---,0.01,VWS V14.00,2013-06-16 23:27:00,
2013-06-16 18:32:00,59.8,54.3,29.82,West,269,0.0,5.0,82,0.00,,---,0.01,VWS V14.00,2013-06-16 23:32:00,
2013-06-16 18:37:00,59.3,54.2,29.81,NE,36,4.0,6.0,83,0.00,,---,0.01,VWS V14.00,2013-06-16 23:37:00,
2013-06-16 18:42:00,58.8,54.6,29.82,WSW,245,0.0,11.0,86,0.00,,---,0.01,VWS V14.00,2013-06-16 23:42:00,
2013-06-16 18:47:00,58.5,54.0,29.84,West,272,3.0,11.0,85,0.00,,---,0.02,VWS V14.00,2013-06-16 23:47:00,
2013-06-16 18:52:00,58.4,54.2,29.84,West,280,0.0,6.0,86,0.00,,---,0.02,VWS V14.00,2013-06-16 23:52:00,
2013-06-16 18:57:00,58.2,54.4,29.84,South,181,2.0,6.0,87,0.07,,---,0.03,VWS V14.00,2013-06-16 23:57:00,
2013-06-16 19:02:00,57.9,54.4,29.83,SSW,213,0.0,6.0,88,0.17,,---,0.05,VWS V14.00,2013-06-17 00:02:00,